Time;durP1;ratioP1;P1;durP2;ratioP2;P2;SDS_P1;SDS_P2;PMS_P1;PMS_P2;Temp;Humidity;BMP_temperature;BMP_pressure;BME280_temperature;BME280_humidity;BME280_pressure;Samples;Min_cycle;Max_cycle;Signal;HPM_P1;HPM_P2
2022/01/06 00:00:12;;;;;;;1999.90;999.90;;;;;;;2.34;91.41;163020.38;5047278;28;20134;-68
2022/01/06 00:02:40;;;;;;;1999.90;999.90;;;;;;;2.15;92.75;162969.75;5052436;28;20076;-68
2022/01/06 00:05:07;;;;;;;1999.90;999.90;;;;;;;2.10;92.78;162958.78;5048226;28;20060;-68
2022/01/06 00:07:35;;;;;;;1999.90;999.90;;;;;;;2.30;92.33;163010.81;5047172;28;20057;-67
2022/01/06 00:10:06;;;;;;;1999.90;999.90;;;;;;;1.96;92.99;162920.44;5047438;28;20045;-68
2022/01/06 00:12:42;;;;;;;1999.90;999.90;;;;;;;2.08;93.10;162951.94;5048210;28;20040;-66
2022/01/06 00:15:26;;;;;;;1999.90;999.90;;;;;;;2.45;92.29;163050.53;5047310;28;20048;-67
2022/01/06 00:25:49;;;;;;;1999.90;999.90;;;;;;;2.19;92.46;162980.66;5047704;28;20571;-67
2022/01/06 00:28:16;;;;;;;1999.90;999.90;;;;;;;2.44;91.96;163049.19;5046348;28;20041;-67
2022/01/06 00:30:43;;;;;;;1999.90;999.90;;;;;;;2.58;91.38;163084.78;5046818;28;20084;-67
2022/01/06 00:33:10;;;;;;;1999.90;999.90;;;;;;;2.77;90.40;163136.84;5047200;28;20394;-67
2022/01/06 00:35:37;;;;;;;1999.90;999.90;;;;;;;2.50;91.07;163062.84;5046697;28;20748;-67
2022/01/06 00:38:07;;;;;;;1999.90;999.90;;;;;;;2.37;91.93;163030.00;5047194;28;20045;-67
2022/01/06 00:40:36;;;;;;;1999.90;999.90;;;;;;;2.36;92.09;163027.25;5047541;28;20100;-67
2022/01/06 00:43:05;;;;;;;1999.90;999.90;;;;;;;2.42;91.47;163042.31;5046638;28;21073;-68
2022/01/06 00:45:33;;;;;;;1999.90;999.90;;;;;;;2.32;92.48;163016.28;5046606;28;20084;-67
2022/01/06 00:47:59;;;;;;;1999.90;999.90;;;;;;;2.46;92.05;163053.28;5046379;28;20056;-67
2022/01/06 00:50:26;;;;;;;1999.90;999.90;;;;;;;2.86;90.59;163158.72;5045863;28;20057;-67
2022/01/06 00:52:53;;;;;;;1999.90;999.90;;;;;;;2.36;92.14;163027.25;5046171;28;20074;-67
2022/01/06 00:55:20;;;;;;;1999.90;999.90;;;;;;;2.29;92.11;163009.47;5047293;28;20106;-68
2022/01/06 00:57:46;;;;;;;1999.90;999.90;;;;;;;2.14;93.00;162967.00;5046170;28;20083;-67
2022/01/06 01:00:13;;;;;;;1999.90;999.90;;;;;;;2.20;93.53;162984.78;5046660;28;20498;-67
2022/01/06 01:02:40;;;;;;;1999.90;999.90;;;;;;;2.57;91.79;163083.38;5046651;28;20514;-67
2022/01/06 01:05:07;;;;;;;1999.90;999.90;;;;;;;2.71;90.74;163120.41;5046166;28;20071;-67
2022/01/06 01:07:33;;;;;;;1999.90;999.90;;;;;;;2.50;91.74;163064.25;5046208;28;20057;-67
2022/01/06 01:10:00;;;;;;;1999.90;999.90;;;;;;;2.46;91.67;163054.63;5048318;28;20370;-68
2022/01/06 01:12:27;;;;;;;1999.90;999.90;;;;;;;2.93;90.97;163177.91;5043907;28;20076;-67
2022/01/06 01:15:04;;;;;;;1999.90;999.90;;;;;;;2.62;90.96;163095.72;5039764;28;20084;-67
2022/01/06 01:17:30;;;;;;;1999.90;999.90;;;;;;;2.48;92.57;163058.75;5046772;28;20045;-67
2022/01/06 01:19:57;;;;;;;1999.90;999.90;;;;;;;2.38;92.98;163032.75;5045467;28;20075;-67
2022/01/06 01:22:24;;;;;;;1999.90;999.90;;;;;;;2.42;92.37;163043.66;5045823;28;20044;-67
2022/01/06 01:24:50;;;;;;;1999.90;999.90;;;;;;;2.51;92.78;163065.59;5046145;28;20118;-67
2022/01/06 01:27:21;;;;;;;1999.90;999.90;;;;;;;2.40;92.47;163038.22;5047599;28;20096;-67
2022/01/06 01:29:58;;;;;;;1999.90;999.90;;;;;;;2.17;93.53;162975.22;5045768;28;20401;-67
2022/01/06 01:32:32;;;;;;;1999.90;999.90;;;;;;;2.51;92.94;163066.97;5044611;28;20084;-67
2022/01/06 01:35:02;;;;;;;1999.90;999.90;;;;;;;2.40;93.17;163038.22;5048613;28;20091;-67
2022/01/06 01:37:31;;;;;;;1999.90;999.90;;;;;;;2.19;93.90;162982.06;5049735;28;20128;-67
2022/01/06 01:39:58;;;;;;;1999.90;999.90;;;;;;;2.18;94.75;162977.97;5033243;28;20106;-67
2022/01/06 01:42:26;;;;;;;1999.90;999.90;;;;;;;1.89;95.60;162901.25;5046200;28;20049;-67
2022/01/06 01:44:53;;;;;;;1999.90;999.90;;;;;;;1.93;95.63;162912.22;5044833;28;20073;-67
2022/01/06 01:47:38;;;;;;;1999.90;999.90;;;;;;;2.16;94.85;162972.47;5045664;28;20177;-67
2022/01/06 01:50:24;;;;;;;1999.90;999.90;;;;;;;2.17;94.91;162976.56;5048860;28;20057;-67
2022/01/06 01:52:53;;;;;;;1999.90;999.90;;;;;;;2.10;94.60;162958.78;5049676;28;20076;-67
2022/01/06 01:55:23;;;;;;;1999.90;999.90;;;;;;;2.10;94.80;162957.44;5048082;28;20077;-67
2022/01/06 01:57:51;;;;;;;1999.90;999.90;;;;;;;2.22;94.21;162988.88;5050234;28;20080;-67
2022/01/06 02:00:20;;;;;;;1999.90;999.90;;;;;;;1.84;95.52;162887.59;5050169;28;20132;-68
2022/01/06 02:02:47;;;;;;;1999.90;999.90;;;;;;;2.02;95.11;162935.50;5048887;28;20095;-67
2022/01/06 02:05:14;;;;;;;1999.90;999.90;;;;;;;2.47;93.54;163057.38;5050028;28;20410;-67
2022/01/06 02:07:41;;;;;;;1999.90;999.90;;;;;;;2.18;94.03;162979.31;5050507;28;20091;-67
2022/01/06 02:10:12;;;;;;;1999.90;999.90;;;;;;;2.54;93.33;163075.16;5049076;28;20061;-67
2022/01/06 02:12:41;;;;;;;1999.90;999.90;;;;;;;2.69;92.80;163114.91;5047826;28;20570;-67
2022/01/06 02:15:10;;;;;;;1999.90;999.90;;;;;;;2.95;91.49;163183.44;5049934;28;20319;-67
2022/01/06 02:17:38;;;;;;;1999.90;999.90;;;;;;;2.91;91.60;163172.47;5047239;28;20407;-67
2022/01/06 02:20:07;;;;;;;1999.90;999.90;;;;;;;2.65;92.24;163103.97;5048584;28;20073;-66
2022/01/06 02:22:33;;;;;;;1999.90;999.90;;;;;;;2.58;92.52;163086.16;5049967;28;20081;-66
2022/01/06 02:25:19;;;;;;;1999.90;999.90;;;;;;;2.50;93.08;163062.84;5048588;28;20446;-67
2022/01/06 02:27:51;;;;;;;1999.90;999.90;;;;;;;2.72;92.93;163123.09;5049000;28;20061;-67
2022/01/06 02:30:20;;;;;;;1999.90;999.90;;;;;;;2.76;92.20;163132.72;5047839;28;20104;-67
2022/01/06 02:32:47;;;;;;;1999.90;999.90;;;;;;;2.87;91.64;163161.47;5049009;28;20045;-67
2022/01/06 02:35:16;;;;;;;1999.90;999.90;;;;;;;2.85;91.49;163156.03;5049577;28;20041;-67
2022/01/06 02:37:43;;;;;;;1999.90;999.90;;;;;;;2.49;92.62;163060.09;5049504;28;20076;-67
2022/01/06 02:40:12;;;;;;;1999.90;999.90;;;;;;;2.51;93.49;163065.59;5049183;28;20072;-66
2022/01/06 02:42:44;;;;;;;1999.90;999.90;;;;;;;2.66;92.49;163106.69;5048273;28;20124;-68
2022/01/06 02:45:11;;;;;;;1999.90;999.90;;;;;;;3.02;91.36;163202.56;5048609;28;20053;-68
2022/01/06 02:47:39;;;;;;;1999.90;999.90;;;;;;;2.84;92.07;163153.28;5047629;28;20049;-69
2022/01/06 02:50:08;;;;;;;1999.90;999.90;;;;;;;2.88;91.75;163164.25;5043528;28;20054;-67
2022/01/06 02:52:35;;;;;;;1999.90;999.90;;;;;;;2.74;92.39;163128.63;5049182;28;20276;-67
2022/01/06 02:55:04;;;;;;;1999.90;999.90;;;;;;;2.32;93.86;163016.28;5047781;28;20134;-67
2022/01/06 02:57:30;;;;;;;1999.90;999.90;;;;;;;2.34;94.54;163020.38;5047786;28;20381;-67
2022/01/06 02:59:57;;;;;;;1999.90;999.90;;;;;;;2.51;94.02;163066.97;5049132;28;20329;-66
2022/01/06 03:02:24;;;;;;;1999.90;999.90;;;;;;;2.54;94.50;163073.81;5049577;28;20049;-67
2022/01/06 03:04:51;;;;;;;1999.90;999.90;;;;;;;2.51;94.27;163065.59;5047671;28;20052;-67
2022/01/06 03:07:17;;;;;;;1999.90;999.90;;;;;;;2.40;94.72;163038.22;5048438;28;20057;-67
2022/01/06 03:09:51;;;;;;;1999.90;999.90;;;;;;;2.31;94.72;163013.56;5049006;28;20075;-67
2022/01/06 03:12:28;;;;;;;1999.90;999.90;;;;;;;2.42;94.05;163042.31;5047227;28;20398;-67
2022/01/06 03:14:55;;;;;;;1999.90;999.90;;;;;;;2.40;94.54;163038.22;5048241;28;20094;-67
2022/01/06 03:17:22;;;;;;;1999.90;999.90;;;;;;;2.25;95.71;162998.50;5047820;28;20072;-67
2022/01/06 03:19:48;;;;;;;1999.90;999.90;;;;;;;2.29;95.04;163009.47;5047541;28;20072;-67
2022/01/06 03:22:15;;;;;;;1999.90;999.90;;;;;;;2.16;96.36;162973.88;5046523;28;20076;-68
2022/01/06 03:24:42;;;;;;;1999.90;999.90;;;;;;;2.19;96.03;162980.66;5048956;28;20102;-67
2022/01/06 03:27:08;;;;;;;1999.90;999.90;;;;;;;2.08;96.62;162951.94;5047198;28;20122;-67
2022/01/06 03:29:35;;;;;;;1999.90;999.90;;;;;;;2.16;96.16;162973.88;5047149;28;20102;-67
2022/01/06 03:32:02;;;;;;;1999.90;999.90;;;;;;;2.01;96.35;162932.75;5056181;28;20406;-67
2022/01/06 03:34:32;;;;;;;1999.90;999.90;;;;;;;1.94;96.96;162916.31;5047582;28;20392;-67
2022/01/06 03:37:01;;;;;;;1999.90;999.90;;;;;;;2.31;96.33;163013.56;5047330;28;20056;-67
2022/01/06 03:39:28;;;;;;;1999.90;999.90;;;;;;;2.66;94.24;163106.69;5048244;28;20080;-67
2022/01/06 03:41:55;;;;;;;1999.90;999.90;;;;;;;2.64;94.36;163102.56;5048211;28;20041;-67
2022/01/06 03:44:22;;;;;;;1999.90;999.90;;;;;;;2.22;95.30;162988.88;5046999;28;20095;-67
2022/01/06 03:46:48;;;;;;;1999.90;999.90;;;;;;;2.62;94.36;163095.72;5048490;28;20077;-67
2022/01/06 03:49:15;;;;;;;1999.90;999.90;;;;;;;2.65;94.62;163103.97;5048644;28;20504;-67
2022/01/06 03:51:41;;;;;;;1999.90;999.90;;;;;;;2.63;93.84;163098.47;5062012;28;20443;-67
2022/01/06 03:54:08;;;;;;;1999.90;999.90;;;;;;;2.46;94.17;163054.63;5048812;28;20331;-67
2022/01/06 03:56:34;;;;;;;1999.90;999.90;;;;;;;2.70;94.41;163116.28;5048011;28;20080;-67
2022/01/06 03:59:02;;;;;;;1999.90;999.90;;;;;;;2.57;94.56;163083.38;5047408;28;20413;-67
2022/01/06 04:01:28;;;;;;;1999.90;999.90;;;;;;;2.65;94.24;163103.97;5048023;28;20445;-67
2022/01/06 04:03:55;;;;;;;1999.90;999.90;;;;;;;2.66;94.20;163106.69;5047146;28;20037;-67
2022/01/06 04:06:22;;;;;;;1999.90;999.90;;;;;;;2.87;93.93;163162.84;5046946;28;20053;-67
2022/01/06 04:08:49;;;;;;;1999.90;999.90;;;;;;;2.82;93.80;163150.50;5047693;28;20044;-67
2022/01/06 04:11:15;;;;;;;1999.90;999.90;;;;;;;2.95;93.61;163183.44;5047364;28;20398;-67
2022/01/06 04:13:42;;;;;;;1999.90;999.90;;;;;;;2.93;94.31;163177.91;5045201;28;20456;-68
2022/01/06 04:16:12;;;;;;;1999.90;999.90;;;;;;;2.85;94.06;163157.38;5047091;28;20122;-67
2022/01/06 04:18:40;;;;;;;1999.90;999.90;;;;;;;3.16;93.06;163239.59;5047111;28;20227;-67
2022/01/06 04:21:07;;;;;;;1999.90;999.90;;;;;;;3.21;92.88;163253.28;5044952;28;20057;-67
2022/01/06 04:23:33;;;;;;;1999.90;999.90;;;;;;;3.07;92.89;163216.28;5046546;28;20416;-67
2022/01/06 04:26:00;;;;;;;1999.90;999.90;;;;;;;3.08;93.05;163219.06;5047505;28;20080;-67
2022/01/06 04:28:27;;;;;;;1999.90;999.90;;;;;;;2.97;93.52;163188.88;5045166;28;20045;-67
2022/01/06 04:30:53;;;;;;;1999.90;999.90;;;;;;;3.31;93.04;163279.34;5047235;28;20126;-67
2022/01/06 04:33:20;;;;;;;1999.90;999.90;;;;;;;2.99;92.83;163194.34;5046389;28;20083;-67
2022/01/06 04:35:46;;;;;;;1999.90;999.90;;;;;;;2.78;94.23;163139.59;5045639;28;20072;-67
2022/01/06 04:38:13;;;;;;;1999.90;999.90;;;;;;;2.83;94.28;163151.91;5046583;28;20103;-67
2022/01/06 04:40:40;;;;;;;1999.90;999.90;;;;;;;2.81;94.88;163147.81;5046747;28;20056;-67
2022/01/06 04:43:07;;;;;;;1999.90;999.90;;;;;;;2.73;94.51;163125.88;5044633;28;20088;-67
2022/01/06 04:45:35;;;;;;;1999.90;999.90;;;;;;;2.56;95.25;163079.28;5046288;28;20060;-67
2022/01/06 04:48:01;;;;;;;1999.90;999.90;;;;;;;2.84;94.76;163154.63;5047188;28;20111;-67
2022/01/06 04:50:28;;;;;;;1999.90;999.90;;;;;;;2.75;95.24;163131.31;5042414;28;20438;-67
2022/01/06 04:52:54;;;;;;;1999.90;999.90;;;;;;;2.74;95.55;163128.63;5045967;28;20445;-67
2022/01/06 04:55:21;;;;;;;1999.90;999.90;;;;;;;2.95;95.05;163183.44;5047244;28;20045;-67
2022/01/06 04:57:47;;;;;;;1999.90;999.90;;;;;;;2.79;95.02;163140.94;5044778;28;20134;-67
2022/01/06 05:00:14;;;;;;;1999.90;999.90;;;;;;;2.91;94.29;163172.47;5045429;28;20137;-67
2022/01/06 05:02:41;;;;;;;1999.90;999.90;;;;;;;2.56;95.69;163079.28;5048815;28;20493;-67
2022/01/06 05:05:08;;;;;;;1999.90;999.90;;;;;;;2.50;96.07;163064.25;5044884;28;20041;-67
2022/01/06 05:07:34;;;;;;;1999.90;999.90;;;;;;;2.87;95.34;163162.84;5045596;28;20053;-67
2022/01/06 05:10:01;;;;;;;1999.90;999.90;;;;;;;2.70;94.89;163116.28;5047194;28;20080;-67
2022/01/06 05:12:28;;;;;;;1999.90;999.90;;;;;;;2.97;94.98;163188.88;5045210;28;20045;-67
2022/01/06 05:14:54;;;;;;;1999.90;999.90;;;;;;;3.26;93.58;163265.59;5045138;28;20107;-67
2022/01/06 05:17:21;;;;;;;1999.90;999.90;;;;;;;3.26;92.78;163267.00;5055007;28;20124;-67
2022/01/06 05:19:47;;;;;;;1999.90;999.90;;;;;;;2.82;94.99;163150.50;5046034;28;20107;-67
2022/01/06 05:22:14;;;;;;;1999.90;999.90;;;;;;;2.92;94.41;163176.56;5045637;28;20462;-67
2022/01/06 05:24:40;;;;;;;1999.90;999.90;;;;;;;2.71;94.75;163120.41;5045747;28;20080;-67
2022/01/06 05:27:10;;;;;;;1999.90;999.90;;;;;;;3.02;94.52;163202.56;5045021;28;20311;-67
2022/01/06 05:29:38;;;;;;;1999.90;999.90;;;;;;;3.09;94.13;163221.75;5046222;28;20101;-67
2022/01/06 05:32:05;;;;;;;1999.90;999.90;;;;;;;3.26;93.57;163265.59;5044876;28;20088;-67
2022/01/06 05:34:31;;;;;;;1999.90;999.90;;;;;;;2.94;94.74;163182.03;5044652;28;20090;-67
2022/01/06 05:36:58;;;;;;;1999.90;999.90;;;;;;;2.68;95.75;163110.78;5045482;28;20067;-67
2022/01/06 05:39:24;;;;;;;1999.90;999.90;;;;;;;2.75;95.42;163129.97;5046348;28;20053;-67
2022/01/06 05:41:51;;;;;;;1999.90;999.90;;;;;;;2.83;95.47;163151.91;5046359;28;20088;-67
2022/01/06 05:44:18;;;;;;;1999.90;999.90;;;;;;;2.93;95.17;163179.31;5044569;28;20405;-67
2022/01/06 05:46:47;;;;;;;1999.90;999.90;;;;;;;2.37;97.07;163030.00;5044887;28;20083;-67
2022/01/06 05:49:15;;;;;;;1999.90;999.90;;;;;;;2.24;97.96;162995.75;5045868;28;20068;-68
2022/01/06 05:51:42;;;;;;;1999.90;999.90;;;;;;;2.29;98.03;163008.06;5044807;28;20438;-67
2022/01/06 05:54:09;;;;;;;1999.90;999.90;;;;;;;2.41;97.86;163040.97;5046050;28;20037;-67
2022/01/06 05:56:35;;;;;;;1999.90;999.90;;;;;;;2.39;97.57;163034.09;5046326;28;20413;-67
2022/01/06 05:59:02;;;;;;;1999.90;999.90;;;;;;;2.45;97.82;163051.88;5045200;28;20076;-67
2022/01/06 06:01:29;;;;;;;1999.90;999.90;;;;;;;2.73;97.45;163124.50;5046067;28;20465;-67
2022/01/06 06:03:56;;;;;;;1999.90;999.90;;;;;;;2.76;96.61;163134.09;5046695;28;20041;-67
2022/01/06 06:06:23;;;;;;;1999.90;999.90;;;;;;;2.44;97.77;163047.78;5044917;28;20041;-67
2022/01/06 06:08:49;;;;;;;1999.90;999.90;;;;;;;2.71;97.06;163120.41;5046203;28;20516;-67
2022/01/06 06:11:16;;;;;;;1999.90;999.90;;;;;;;2.27;98.31;163002.59;5046777;28;20186;-68
2022/01/06 06:13:42;;;;;;;1999.90;999.90;;;;;;;2.06;99.15;162947.81;5044865;28;20080;-68
2022/01/06 06:16:09;;;;;;;1999.90;999.90;;;;;;;2.08;100.00;162951.94;5047191;28;20228;-67
2022/01/06 06:18:35;;;;;;;1999.90;999.90;;;;;;;2.31;98.84;163012.16;5046684;28;20053;-67
2022/01/06 06:21:02;;;;;;;1999.90;999.90;;;;;;;2.37;98.27;163030.00;5044811;28;20049;-67
2022/01/06 06:23:28;;;;;;;1999.90;999.90;;;;;;;2.64;97.02;163101.22;5038736;28;20577;-67
2022/01/06 06:25:55;;;;;;;1999.90;999.90;;;;;;;2.34;98.09;163021.78;5045661;28;20099;-67
2022/01/06 06:28:21;;;;;;;1999.90;999.90;;;;;;;2.40;98.11;163036.84;5045589;28;20398;-68
2022/01/06 06:30:48;;;;;;;1999.90;999.90;;;;;;;2.39;98.88;163035.47;5046427;28;20134;-67
2022/01/06 06:33:14;;;;;;;1999.90;999.90;;;;;;;2.42;98.52;163042.31;5046465;28;20056;-68
2022/01/06 06:35:41;;;;;;;1999.90;999.90;;;;;;;2.53;98.51;163071.06;5044938;28;20072;-68
2022/01/06 06:38:07;;;;;;;1999.90;999.90;;;;;;;2.44;98.50;163049.19;5049178;28;20182;-68
2022/01/06 06:40:34;;;;;;;1999.90;999.90;;;;;;;2.69;97.52;163114.91;5049609;28;20110;-68
2022/01/06 06:43:01;;;;;;;1999.90;999.90;;;;;;;2.92;97.00;163175.22;5048037;28;20207;-68
2022/01/06 06:45:27;;;;;;;1999.90;999.90;;;;;;;2.67;97.58;163109.44;5049929;28;20403;-68
2022/01/06 06:47:54;;;;;;;1999.90;999.90;;;;;;;2.73;97.83;163125.88;5050321;28;20096;-68
2022/01/06 06:50:21;;;;;;;1999.90;999.90;;;;;;;2.72;98.33;163121.75;5049337;28;20053;-68
2022/01/06 06:52:48;;;;;;;1999.90;999.90;;;;;;;2.55;98.60;163076.56;5052948;28;20182;-68
2022/01/06 06:55:15;;;;;;;1999.90;999.90;;;;;;;2.63;98.26;163098.47;5049691;28;20044;-68
2022/01/06 06:57:41;;;;;;;1999.90;999.90;;;;;;;2.92;97.18;163175.22;5048366;28;20091;-68
2022/01/06 07:00:10;;;;;;;1999.90;999.90;;;;;;;3.33;96.01;163286.19;5048373;28;20045;-68
2022/01/06 07:02:36;;;;;;;1999.90;999.90;;;;;;;3.05;96.67;163210.84;5049344;28;20102;-68
2022/01/06 07:05:04;;;;;;;1999.90;999.90;;;;;;;3.17;95.88;163243.72;5044569;28;20037;-68
2022/01/06 07:07:30;;;;;;;1999.90;999.90;;;;;;;3.40;95.06;163304.00;5038773;28;20080;-68
2022/01/06 07:09:57;;;;;;;1999.90;999.90;;;;;;;3.32;95.83;163283.44;5048961;28;20045;-68
2022/01/06 07:12:24;;;;;;;1999.90;999.90;;;;;;;3.21;95.87;163251.91;5046358;28;20068;-68
2022/01/06 07:14:51;;;;;;;1999.90;999.90;;;;;;;3.16;96.30;163239.59;5047876;28;20108;-68
2022/01/06 07:17:17;;;;;;;1999.90;999.90;;;;;;;3.01;96.44;163199.88;5031159;28;20495;-68
2022/01/06 07:19:44;;;;;;;1999.90;999.90;;;;;;;3.23;96.74;163257.38;5048508;28;20049;-68
2022/01/06 07:22:10;;;;;;;1999.90;999.90;;;;;;;2.91;97.46;163172.47;5047563;28;20092;-68
2022/01/06 07:24:37;;;;;;;1999.90;999.90;;;;;;;3.15;96.87;163238.19;5050340;28;20053;-68
2022/01/06 07:27:05;;;;;;;1999.90;999.90;;;;;;;3.33;96.33;163284.78;5047538;28;20054;-68
2022/01/06 07:29:31;;;;;;;1999.90;999.90;;;;;;;3.47;95.89;163321.84;5046875;28;20130;-68
2022/01/06 07:31:58;;;;;;;1999.90;999.90;;;;;;;3.04;96.72;163206.69;5048451;28;20083;-68
2022/01/06 07:34:24;;;;;;;1999.90;999.90;;;;;;;2.79;97.72;163140.94;5047512;28;20095;-68
2022/01/06 07:36:51;;;;;;;1999.90;999.90;;;;;;;3.00;97.83;163197.09;5041756;28;20098;-68
2022/01/06 07:39:17;;;;;;;1999.90;999.90;;;;;;;2.98;97.94;163191.66;5049391;28;20078;-68
2022/01/06 07:41:44;;;;;;;1999.90;999.90;;;;;;;3.00;96.73;163198.47;5048135;28;20126;-68
2022/01/06 07:44:10;;;;;;;1999.90;999.90;;;;;;;3.19;97.05;163247.81;5047860;28;20083;-68
2022/01/06 07:46:37;;;;;;;1999.90;999.90;;;;;;;3.31;96.56;163279.34;5049044;28;20342;-68
2022/01/06 07:49:04;;;;;;;1999.90;999.90;;;;;;;2.95;97.56;163184.78;5047457;28;20140;-68
2022/01/06 07:51:32;;;;;;;1999.90;999.90;;;;;;;2.91;97.51;163172.47;5040373;28;20056;-68
2022/01/06 07:53:59;;;;;;;1999.90;999.90;;;;;;;3.01;97.70;163199.88;5064118;28;20044;-68
2022/01/06 07:56:26;;;;;;;1999.90;999.90;;;;;;;2.98;97.39;163193.00;5047914;28;20128;-68
2022/01/06 07:58:53;;;;;;;1999.90;999.90;;;;;;;2.96;97.35;163186.13;5047612;28;20045;-68
2022/01/06 08:01:19;;;;;;;1999.90;999.90;;;;;;;3.45;95.86;163317.69;5047516;28;20057;-68
2022/01/06 08:03:46;;;;;;;1999.90;999.90;;;;;;;3.50;95.43;163330.06;5047875;28;20136;-68
2022/01/06 08:06:15;;;;;;;1999.90;999.90;;;;;;;3.52;95.22;163336.88;5045458;28;20045;-68
2022/01/06 08:08:41;;;;;;;1999.90;999.90;;;;;;;3.38;96.15;163298.53;5047178;28;20426;-68
2022/01/06 08:11:08;;;;;;;1999.90;999.90;;;;;;;3.34;95.97;163287.56;5048219;28;20075;-68
2022/01/06 08:13:35;;;;;;;1999.90;999.90;;;;;;;3.59;95.74;163353.31;5045716;28;20041;-68
2022/01/06 08:16:03;;;;;;;1999.90;999.90;;;;;;;3.31;96.00;163279.34;5046792;28;20098;-68
2022/01/06 08:18:29;;;;;;;1999.90;999.90;;;;;;;3.24;96.29;163261.50;5048183;28;20339;-67
2022/01/06 08:20:56;;;;;;;1999.90;999.90;;;;;;;3.24;96.28;163261.50;5046482;28;20073;-68
2022/01/06 08:23:23;;;;;;;1999.90;999.90;;;;;;;3.14;97.13;163234.09;5048389;28;20487;-67
2022/01/06 08:25:49;;;;;;;1999.90;999.90;;;;;;;3.24;96.45;163261.50;5047245;28;20398;-68
2022/01/06 08:28:16;;;;;;;1999.90;999.90;;;;;;;3.08;97.82;163219.06;5046832;28;20069;-68
2022/01/06 08:30:43;;;;;;;1999.90;999.90;;;;;;;3.29;96.97;163273.81;5046711;28;20057;-68
2022/01/06 08:33:09;;;;;;;1999.90;999.90;;;;;;;3.06;96.79;163213.53;5048241;28;20094;-67
2022/01/06 08:35:36;;;;;;;1999.90;999.90;;;;;;;3.14;97.54;163235.50;5045774;28;20169;-67
2022/01/06 08:38:02;;;;;;;1999.90;999.90;;;;;;;3.02;97.64;163202.56;5047344;28;20045;-68
2022/01/06 08:40:31;;;;;;;1999.90;999.90;;;;;;;2.90;98.64;163169.69;5046796;28;20103;-67
2022/01/06 08:42:57;;;;;;;1999.90;999.90;;;;;;;3.01;98.24;163199.88;5045802;28;20405;-67
2022/01/06 08:45:24;;;;;;;1999.90;999.90;;;;;;;3.22;97.45;163254.69;5045836;28;20080;-68
2022/01/06 08:47:50;;;;;;;1999.90;999.90;;;;;;;3.91;94.97;163439.69;5047097;28;20090;-68
2022/01/06 08:50:17;;;;;;;1999.90;999.90;;;;;;;3.85;94.74;163424.59;5046603;28;20057;-68
2022/01/06 08:52:45;;;;;;;1999.90;999.90;;;;;;;4.27;92.61;163534.31;5047509;28;20045;-68
2022/01/06 08:55:12;;;;;;;1999.90;999.90;;;;;;;4.57;92.21;163616.59;5048965;28;20049;-67
2022/01/06 08:57:39;;;;;;;1999.90;999.90;;;;;;;4.48;91.91;163591.94;5049039;28;20149;-68
2022/01/06 09:00:09;;;;;;;1999.90;999.90;;;;;;;4.82;90.54;163682.44;5047920;28;20075;-68
2022/01/06 09:02:36;;;;;;;1999.90;999.90;;;;;;;4.64;91.14;163633.06;5048814;28;20083;-68
2022/01/06 09:05:06;;;;;;;1999.90;999.90;;;;;;;4.41;92.88;163574.06;5046821;28;20049;-68
2022/01/06 09:07:34;;;;;;;1999.90;999.90;;;;;;;4.27;93.54;163534.31;5046740;28;20318;-68
2022/01/06 09:10:00;;;;;;;1999.90;999.90;;;;;;;3.99;95.08;163460.25;5048030;28;20399;-68
2022/01/06 09:12:27;;;;;;;1999.90;999.90;;;;;;;3.34;98.98;163288.91;5044436;28;20053;-68
2022/01/06 09:14:54;;;;;;;1999.90;999.90;;;;;;;2.91;100.00;163173.81;5046018;28;20076;-68
2022/01/06 09:17:21;;;;;;;1999.90;999.90;;;;;;;1.81;100.00;162879.38;5047799;28;20118;-68
2022/01/06 09:19:47;;;;;;;1999.90;999.90;;;;;;;2.00;100.00;162930.06;5047057;28;20417;-68
2022/01/06 09:22:14;;;;;;;1999.90;999.90;;;;;;;1.83;100.00;162886.25;5049855;28;20048;-68
2022/01/06 09:24:40;;;;;;;1999.90;999.90;;;;;;;1.92;100.00;162909.47;5048044;28;20404;-68
2022/01/06 09:27:07;;;;;;;1999.90;999.90;;;;;;;1.96;100.00;162920.44;5045797;28;20102;-68
2022/01/06 09:29:34;;;;;;;1999.90;999.90;;;;;;;2.51;100.00;163065.59;5045939;28;20114;-68
2022/01/06 09:32:01;;;;;;;1999.90;999.90;;;;;;;2.82;100.00;163150.50;5044667;28;20454;-68
2022/01/06 09:34:28;;;;;;;1999.90;999.90;;;;;;;2.65;100.00;163103.97;5045370;28;20085;-68
2022/01/06 09:36:54;;;;;;;1999.90;999.90;;;;;;;2.15;100.00;162971.09;5045579;28;20041;-68
2022/01/06 09:39:21;;;;;;;1999.90;999.90;;;;;;;1.74;100.00;162862.97;5047183;28;20057;-68
2022/01/06 09:41:48;;;;;;;1999.90;999.90;;;;;;;1.78;100.00;162872.53;5046940;28;20106;-68
2022/01/06 09:44:15;;;;;;;1999.90;999.90;;;;;;;1.73;100.00;162860.22;5045236;28;20045;-68
2022/01/06 09:46:57;;;;;;;1999.90;999.90;;;;;;;1.73;100.00;162860.22;5046417;28;20120;-68
2022/01/06 09:49:23;;;;;;;1999.90;999.90;;;;;;;2.00;100.00;162930.06;5046229;28;20265;-68
2022/01/06 09:51:51;;;;;;;1999.90;999.90;;;;;;;2.02;100.00;162936.84;5044965;28;20053;-68
2022/01/06 09:54:18;;;;;;;1999.90;999.90;;;;;;;2.05;100.00;162945.06;5045458;28;20445;-68
2022/01/06 09:56:45;;;;;;;1999.90;999.90;;;;;;;2.49;100.00;163061.50;5046718;28;20057;-68
2022/01/06 09:59:12;;;;;;;1999.90;999.90;;;;;;;1.47;100.00;162789.03;5044693;28;20057;-68
2022/01/06 10:01:38;;;;;;;1999.90;999.90;;;;;;;1.40;100.00;162771.25;5046005;28;20295;-68
2022/01/06 10:04:17;;;;;;;1999.90;999.90;;;;;;;1.79;100.00;162873.88;5046888;28;20111;-68
2022/01/06 10:06:56;;;;;;;1999.90;999.90;;;;;;;1.22;100.00;162723.31;5045724;28;20045;-68
2022/01/06 10:09:24;;;;;;;1999.90;999.90;;;;;;;1.43;100.00;162778.06;5045948;28;20103;-68
2022/01/06 10:11:54;;;;;;;1999.90;999.90;;;;;;;1.34;100.00;162754.81;5048419;28;20421;-68
2022/01/06 10:14:30;;;;;;;1999.90;999.90;;;;;;;1.90;100.00;162904.00;5048694;28;20107;-69
2022/01/06 10:16:58;;;;;;;1999.90;999.90;;;;;;;1.04;100.00;162676.84;5049774;28;20044;-68
2022/01/06 10:19:25;;;;;;;1999.90;999.90;;;;;;;0.96;100.00;162654.94;5050839;28;20049;-68
2022/01/06 10:21:57;;;;;;;1999.90;999.90;;;;;;;1.32;100.00;162750.69;5050709;28;20090;-68
2022/01/06 10:24:26;;;;;;;1999.90;999.90;;;;;;;1.76;100.00;162868.41;5049073;28;20418;-68
2022/01/06 10:26:56;;;;;;;1999.90;999.90;;;;;;;1.46;100.00;162787.69;5049545;28;20080;-68
2022/01/06 10:29:29;;;;;;;1999.90;999.90;;;;;;;1.27;100.00;162735.69;5050485;28;20140;-68
2022/01/06 10:32:04;;;;;;;1999.90;999.90;;;;;;;1.44;100.00;162780.81;5049623;28;20084;-68
2022/01/06 10:34:32;;;;;;;1999.90;999.90;;;;;;;1.11;100.00;162694.59;5038803;28;20398;-68
2022/01/06 10:36:59;;;;;;;1999.90;999.90;;;;;;;1.27;100.00;162737.03;5051533;28;20088;-68
2022/01/06 10:39:39;;;;;;;1999.90;999.90;;;;;;;0.99;100.00;162663.13;5049456;28;20045;-68
2022/01/06 10:42:06;;;;;;;1999.90;999.90;;;;;;;1.26;100.00;162734.28;5047924;28;20044;-68
2022/01/06 10:44:33;;;;;;;1999.90;999.90;;;;;;;1.34;100.00;162756.22;5050666;28;20088;-69
2022/01/06 10:46:59;;;;;;;1999.90;999.90;;;;;;;1.36;100.00;162760.31;5049955;28;20421;-70
2022/01/06 10:49:26;;;;;;;1999.90;999.90;;;;;;;1.39;100.00;162769.88;5048751;28;20071;-70
2022/01/06 10:51:52;;;;;;;1999.90;999.90;;;;;;;1.22;100.00;162723.31;5050473;28;20045;-70
2022/01/06 10:54:22;;;;;;;1999.90;999.90;;;;;;;1.40;99.95;162772.63;5048883;28;20353;-69
2022/01/06 10:57:02;;;;;;;1999.90;999.90;;;;;;;1.64;97.42;162835.59;5047757;28;20045;-69
2022/01/06 10:59:33;;;;;;;1999.90;999.90;;;;;;;1.27;98.43;162737.03;5048699;28;20053;-69
2022/01/06 11:02:01;;;;;;;1999.90;999.90;;;;;;;1.39;99.34;162768.50;5049783;28;20064;-69